createdAt,value
2023-02-25T00:01:36.854Z,87.28
2023-02-25T00:04:03.991Z,89.36
2023-02-25T00:06:30.460Z,90.59
2023-02-25T00:08:57.213Z,91.93
2023-02-25T00:11:27.486Z,88.56
2023-02-25T00:13:56.818Z,89.63
2023-02-25T00:16:27.552Z,91.34
2023-02-25T00:18:58.175Z,89.57
2023-02-25T00:21:29.577Z,89.05
2023-02-25T00:24:00.117Z,90.08
2023-02-25T00:26:31.006Z,91.98
2023-02-25T00:28:57.770Z,91.71
2023-02-25T00:31:28.635Z,93.37
2023-02-25T00:33:55.820Z,97.86
2023-02-25T00:36:25.519Z,98.79
2023-02-25T00:39:01.204Z,98.84
2023-02-25T00:41:30.210Z,96.91
2023-02-25T00:44:02.233Z,100.00
2023-02-25T00:46:31.043Z,100.00
2023-02-25T00:48:58.964Z,100.00
2023-02-25T00:51:28.513Z,100.00
2023-02-25T00:53:56.847Z,100.00
2023-02-25T00:56:26.540Z,100.00
2023-02-25T00:58:56.481Z,100.00
2023-02-25T01:01:29.002Z,100.00
2023-02-25T01:04:00.153Z,100.00
2023-02-25T01:06:28.737Z,99.55
2023-02-25T01:08:56.613Z,100.00
2023-02-25T01:11:29.446Z,100.00
2023-02-25T01:14:00.944Z,100.00
2023-02-25T01:16:32.395Z,100.00
2023-02-25T01:19:01.709Z,100.00
2023-02-25T01:21:31.958Z,100.00
2023-02-25T01:24:05.300Z,100.00
2023-02-25T01:26:35.003Z,100.00
2023-02-25T01:29:01.872Z,100.00
2023-02-25T01:31:31.854Z,100.00
2023-02-25T01:34:03.659Z,100.00
2023-02-25T01:36:31.704Z,100.00
2023-02-25T01:39:02.441Z,100.00
2023-02-25T01:41:30.813Z,100.00
2023-02-25T01:44:08.365Z,100.00
2023-02-25T01:46:36.473Z,100.00
2023-02-25T01:49:07.412Z,100.00
2023-02-25T01:51:35.835Z,100.00
2023-02-25T01:54:04.420Z,100.00
2023-02-25T01:56:31.841Z,100.00
2023-02-25T01:59:02.273Z,100.00
2023-02-25T02:01:35.379Z,100.00
2023-02-25T02:04:04.484Z,100.00
2023-02-25T02:06:37.538Z,100.00
2023-02-25T02:09:07.233Z,100.00
2023-02-25T02:11:34.216Z,100.00
2023-02-25T02:14:06.143Z,100.00
2023-02-25T02:16:44.644Z,100.00
2023-02-25T02:19:36.212Z,100.00
2023-02-25T02:22:24.132Z,100.00
2023-02-25T02:25:17.745Z,100.00
2023-02-25T02:28:11.871Z,100.00
2023-02-25T02:31:17.532Z,100.00
2023-02-25T02:34:18.691Z,100.00
2023-02-25T02:36:51.535Z,100.00
2023-02-25T02:39:33.984Z,100.00
2023-02-25T02:42:21.712Z,100.00
2023-02-25T02:44:58.742Z,100.00
2023-02-25T02:47:32.181Z,100.00
2023-02-25T02:50:10.001Z,100.00
2023-02-25T02:52:51.632Z,100.00
2023-02-25T02:55:34.128Z,100.00
2023-02-25T02:58:06.912Z,100.00
2023-02-25T03:00:39.844Z,100.00
2023-02-25T03:03:14.617Z,100.00
2023-02-25T03:05:45.447Z,100.00
2023-02-25T03:08:17.336Z,100.00
2023-02-25T03:10:44.720Z,100.00
2023-02-25T03:13:12.019Z,100.00
2023-02-25T03:15:41.224Z,100.00
2023-02-25T03:18:30.953Z,100.00
2023-02-25T03:20:58.870Z,100.00
2023-02-25T03:23:32.781Z,100.00
2023-02-25T03:26:23.133Z,100.00
2023-02-25T03:28:50.296Z,100.00
2023-02-25T03:31:25.463Z,100.00
2023-02-25T03:33:56.659Z,100.00
2023-02-25T03:36:41.969Z,100.00
2023-02-25T03:39:20.567Z,100.00
2023-02-25T03:41:52.160Z,100.00
2023-02-25T03:44:24.947Z,100.00
2023-02-25T03:46:53.698Z,100.00
2023-02-25T03:49:26.294Z,100.00
2023-02-25T03:51:56.475Z,100.00
2023-02-25T03:54:23.005Z,100.00
2023-02-25T03:56:51.411Z,100.00
2023-02-25T03:59:19.187Z,100.00
2023-02-25T04:01:50.206Z,100.00
2023-02-25T04:04:16.793Z,100.00
2023-02-25T04:06:43.305Z,100.00
2023-02-25T04:09:09.822Z,100.00
2023-02-25T04:11:39.228Z,100.00
2023-02-25T04:14:07.315Z,100.00
2023-02-25T04:16:33.897Z,100.00
2023-02-25T04:19:00.382Z,100.00
2023-02-25T04:21:37.576Z,100.00
2023-02-25T04:24:09.223Z,100.00
2023-02-25T04:26:38.434Z,100.00
2023-02-25T04:29:05.003Z,100.00
2023-02-25T04:31:31.982Z,100.00
2023-02-25T04:33:58.559Z,100.00
2023-02-25T04:36:29.913Z,100.00
2023-02-25T04:38:57.820Z,100.00
2023-02-25T04:41:24.934Z,100.00
2023-02-25T04:43:51.378Z,100.00
2023-02-25T04:46:17.926Z,100.00
2023-02-25T04:48:44.460Z,100.00
2023-02-25T04:51:10.966Z,100.00
2023-02-25T04:53:38.443Z,100.00
2023-02-25T04:56:08.552Z,98.94
2023-02-25T04:58:36.404Z,100.00
2023-02-25T05:01:05.589Z,100.00
2023-02-25T05:03:33.558Z,100.00
2023-02-25T05:06:00.390Z,100.00
2023-02-25T05:08:27.627Z,100.00
2023-02-25T05:10:54.256Z,100.00
2023-02-25T05:13:21.311Z,100.00
2023-02-25T05:15:48.257Z,100.00
2023-02-25T05:18:14.917Z,100.00
2023-02-25T05:20:43.237Z,100.00
2023-02-25T05:23:13.579Z,100.00
2023-02-25T05:25:43.557Z,100.00
2023-02-25T05:28:13.153Z,100.00
2023-02-25T05:30:43.415Z,100.00
2023-02-25T05:33:14.212Z,100.00
2023-02-25T05:35:44.904Z,100.00
2023-02-25T05:38:14.464Z,100.00
2023-02-25T05:40:44.373Z,100.00
2023-02-25T05:43:13.791Z,100.00
2023-02-25T05:45:56.457Z,100.00
2023-02-25T05:48:23.723Z,100.00
2023-02-25T05:50:51.396Z,100.00
2023-02-25T05:53:20.539Z,100.00
2023-02-25T05:55:47.057Z,100.00
2023-02-25T05:58:13.564Z,100.00
2023-02-25T06:00:41.825Z,100.00
2023-02-25T06:03:08.343Z,100.00
2023-02-25T06:05:34.860Z,100.00
2023-02-25T06:08:01.368Z,100.00
2023-02-25T06:10:27.850Z,100.00
2023-02-25T06:12:54.367Z,100.00
2023-02-25T06:15:20.818Z,100.00
2023-02-25T06:17:47.298Z,100.00
2023-02-25T06:20:16.550Z,100.00
2023-02-25T06:22:43.565Z,100.00
2023-02-25T06:25:13.728Z,100.00
2023-02-25T06:27:45.491Z,100.00
2023-02-25T06:30:13.010Z,100.00
2023-02-25T06:32:43.637Z,100.00
2023-02-25T06:35:14.781Z,100.00
2023-02-25T06:37:44.524Z,100.00
2023-02-25T06:40:15.228Z,100.00
2023-02-25T06:42:42.084Z,100.00
2023-02-25T06:45:11.592Z,100.00
2023-02-25T06:47:38.120Z,100.00
2023-02-25T06:50:05.469Z,100.00
2023-02-25T06:52:32.041Z,100.00
2023-02-25T06:54:58.472Z,100.00
2023-02-25T06:57:25.147Z,100.00
2023-02-25T06:59:53.313Z,100.00
2023-02-25T07:02:20.186Z,100.00
2023-02-25T07:04:46.706Z,100.00
2023-02-25T07:07:13.194Z,100.00
2023-02-25T07:09:39.882Z,100.00
2023-02-25T07:12:07.570Z,100.00
2023-02-25T07:14:34.068Z,100.00
2023-02-25T07:17:00.635Z,100.00
2023-02-25T07:19:27.159Z,100.00
2023-02-25T07:21:55.213Z,100.00
2023-02-25T07:24:23.437Z,100.00
2023-02-25T07:26:50.033Z,100.00
2023-02-25T07:29:17.002Z,100.00
2023-02-25T07:31:45.723Z,100.00
2023-02-25T07:34:12.812Z,100.00
2023-02-25T07:36:43.653Z,100.00
2023-02-25T07:39:15.614Z,100.00
2023-02-25T07:41:42.655Z,100.00
2023-02-25T07:44:10.747Z,100.00
2023-02-25T07:46:37.697Z,100.00
2023-02-25T07:49:04.683Z,100.00
2023-02-25T07:51:31.151Z,100.00
2023-02-25T07:53:58.318Z,100.00
2023-02-25T07:56:28.562Z,100.00
2023-02-25T07:58:55.658Z,100.00
2023-02-25T08:01:26.375Z,100.00
2023-02-25T08:03:55.224Z,100.00
2023-02-25T08:06:22.081Z,100.00
2023-02-25T08:08:52.303Z,100.00
2023-02-25T08:11:20.660Z,100.00
2023-02-25T08:13:47.934Z,100.00
2023-02-25T08:16:17.039Z,100.00
2023-02-25T08:18:43.878Z,99.86
2023-02-25T08:21:12.872Z,99.58
2023-02-25T08:23:45.614Z,100.00
2023-02-25T08:26:12.464Z,99.94
2023-02-25T08:28:41.349Z,98.74
2023-02-25T08:31:14.597Z,98.42
2023-02-25T08:33:49.538Z,97.52
2023-02-25T08:36:20.577Z,97.14
2023-02-25T08:38:47.641Z,97.11
2023-02-25T08:41:14.572Z,97.37
2023-02-25T08:43:44.437Z,97.64
2023-02-25T08:46:14.076Z,96.62
2023-02-25T08:48:43.535Z,95.51
2023-02-25T08:51:15.146Z,95.46
2023-02-25T08:53:44.759Z,95.15
2023-02-25T08:56:16.368Z,95.50
2023-02-25T08:58:43.861Z,95.65
2023-02-25T09:01:14.385Z,95.97
2023-02-25T09:04:18.944Z,95.67
2023-02-25T09:06:49.039Z,95.74
2023-02-25T09:09:17.096Z,97.08
2023-02-25T09:11:44.986Z,96.23
2023-02-25T09:14:15.604Z,96.34
2023-02-25T09:16:42.203Z,95.90
2023-02-25T09:19:10.865Z,95.08
2023-02-25T09:21:37.489Z,95.19
2023-02-25T09:24:04.399Z,94.57
2023-02-25T09:26:30.914Z,93.58
2023-02-25T09:29:01.138Z,93.17
2023-02-25T09:31:28.085Z,93.13
2023-02-25T09:33:54.811Z,95.11
2023-02-25T09:36:22.417Z,94.70
2023-02-25T09:38:50.597Z,94.48
2023-02-25T09:41:29.311Z,94.24
2023-02-25T09:44:03.560Z,93.38
2023-02-25T09:46:46.392Z,92.82
2023-02-25T09:49:20.198Z,91.11
2023-02-25T09:51:52.905Z,90.38
2023-02-25T09:54:51.746Z,90.23
2023-02-25T09:57:22.480Z,92.12
2023-02-25T09:59:53.652Z,91.20
2023-02-25T10:02:44.222Z,90.10
2023-02-25T10:05:39.174Z,87.57
2023-02-25T10:08:20.906Z,85.92
2023-02-25T10:10:59.424Z,86.67
2023-02-25T10:13:54.784Z,87.50
2023-02-25T10:16:49.105Z,86.20
2023-02-25T10:19:30.744Z,85.30
2023-02-25T10:22:17.362Z,86.09
2023-02-25T10:24:48.589Z,85.34
2023-02-25T10:27:24.500Z,86.23
2023-02-25T10:29:56.963Z,86.31
2023-02-25T10:32:27.151Z,87.06
2023-02-25T10:34:57.987Z,86.91
2023-02-25T10:37:36.019Z,86.86
2023-02-25T10:40:11.293Z,86.47
2023-02-25T10:42:38.446Z,87.21
2023-02-25T10:45:14.490Z,86.33
2023-02-25T10:47:49.372Z,85.81
2023-02-25T10:50:27.734Z,86.29
2023-02-25T10:53:05.197Z,86.58
2023-02-25T10:55:43.785Z,86.75
2023-02-25T10:58:34.888Z,88.59
2023-02-25T11:01:12.571Z,89.68
2023-02-25T11:03:48.198Z,90.57
2023-02-25T11:06:24.837Z,91.25
2023-02-25T11:08:54.699Z,91.67
2023-02-25T11:11:24.750Z,90.84
2023-02-25T11:14:07.002Z,92.75
2023-02-25T11:16:36.473Z,92.88
2023-02-25T11:19:31.654Z,93.69
2023-02-25T11:22:06.153Z,93.27
2023-02-25T11:24:36.158Z,90.55
2023-02-25T11:27:04.614Z,88.37
2023-02-25T11:29:42.628Z,86.67
2023-02-25T11:32:16.619Z,86.00
2023-02-25T11:34:53.743Z,85.76
2023-02-25T11:37:45.308Z,87.11
2023-02-25T11:40:44.169Z,87.71
2023-02-25T11:43:34.115Z,88.20
2023-02-25T11:46:08.955Z,87.82
2023-02-25T11:48:49.942Z,85.38
2023-02-25T11:51:22.429Z,84.35
2023-02-25T11:54:21.371Z,83.04
2023-02-25T11:57:26.006Z,83.84
2023-02-25T12:00:48.348Z,85.05
2023-02-25T12:03:39.102Z,82.93
2023-02-25T12:06:24.087Z,81.14
2023-02-25T12:09:17.801Z,80.24
2023-02-25T12:12:06.333Z,80.61
2023-02-25T12:15:00.897Z,78.76
2023-02-25T12:18:01.976Z,78.91
2023-02-25T12:21:07.256Z,80.78
2023-02-25T12:23:49.868Z,80.72
2023-02-25T12:26:43.990Z,81.54
2023-02-25T12:29:23.159Z,83.01
2023-02-25T12:32:24.845Z,81.03
2023-02-25T12:35:12.696Z,82.13
2023-02-25T12:38:00.586Z,79.94
2023-02-25T12:40:49.012Z,78.82
2023-02-25T12:43:40.740Z,78.30
2023-02-25T12:46:16.519Z,78.56
2023-02-25T12:49:34.178Z,78.40
2023-02-25T12:52:23.972Z,78.07
2023-02-25T12:55:02.316Z,77.55
2023-02-25T12:57:50.183Z,77.50
2023-02-25T13:00:28.898Z,78.61
2023-02-25T13:03:33.195Z,80.10
2023-02-25T13:06:33.595Z,80.60
2023-02-25T13:09:26.616Z,80.20
2023-02-25T13:12:11.559Z,81.36
2023-02-25T13:15:07.482Z,81.08
2023-02-25T13:17:51.243Z,82.21
2023-02-25T13:20:35.401Z,81.73
2023-02-25T13:23:31.032Z,82.19
2023-02-25T13:26:09.530Z,81.60
2023-02-25T13:28:35.955Z,81.33
2023-02-25T13:31:16.610Z,81.07
2023-02-25T13:34:03.558Z,80.73
2023-02-25T13:36:52.801Z,80.94
2023-02-25T13:39:47.721Z,79.61
2023-02-25T13:42:51.941Z,79.31
2023-02-25T13:45:38.578Z,80.31
2023-02-25T13:48:44.284Z,83.21
2023-02-25T13:51:16.002Z,84.34
2023-02-25T13:54:23.171Z,85.25
2023-02-25T13:57:11.638Z,87.13
2023-02-25T13:59:47.230Z,87.59
2023-02-25T14:02:18.206Z,88.42
2023-02-25T14:04:53.198Z,87.66
2023-02-25T14:07:32.218Z,88.99
2023-02-25T14:10:18.459Z,88.61
2023-02-25T14:13:21.960Z,89.25
2023-02-25T14:16:22.853Z,88.26
2023-02-25T14:19:10.228Z,88.51
2023-02-25T14:21:58.234Z,88.26
2023-02-25T14:25:02.836Z,87.93
2023-02-25T14:28:07.195Z,88.40
2023-02-25T14:30:54.814Z,88.15
2023-02-25T14:33:52.320Z,88.50
2023-02-25T14:36:41.738Z,89.01
2023-02-25T14:39:21.667Z,88.40
2023-02-25T14:42:11.532Z,87.72
2023-02-25T14:44:41.199Z,89.56
2023-02-25T14:47:18.067Z,89.03
2023-02-25T14:50:07.120Z,87.80
2023-02-25T14:52:59.465Z,87.75
2023-02-25T14:55:55.765Z,89.71
2023-02-25T14:58:28.113Z,89.09
2023-02-25T15:01:12.944Z,88.49
2023-02-25T15:03:48.437Z,88.07
2023-02-25T15:06:30.077Z,89.85
2023-02-25T15:09:22.553Z,91.65
2023-02-25T15:12:20.385Z,93.25
2023-02-25T15:15:09.901Z,93.71
2023-02-25T15:17:58.287Z,93.83
2023-02-25T15:20:39.214Z,95.49
2023-02-25T15:23:13.685Z,94.51
2023-02-25T15:25:50.335Z,93.67
2023-02-25T15:28:31.618Z,95.44
2023-02-25T15:31:01.045Z,96.66
2023-02-25T15:33:33.982Z,96.15
2023-02-25T15:36:18.961Z,96.15
2023-02-25T15:38:52.252Z,97.35
2023-02-25T15:41:27.758Z,96.55
2023-02-25T15:43:59.160Z,97.50
2023-02-25T15:46:35.077Z,99.07
2023-02-25T15:49:07.811Z,98.08
2023-02-25T15:51:52.748Z,96.75
2023-02-25T15:54:31.174Z,94.71
2023-02-25T15:57:00.046Z,93.09
2023-02-25T16:00:01.049Z,93.36
2023-02-25T16:02:30.388Z,92.99
2023-02-25T16:05:19.409Z,91.78
2023-02-25T16:07:49.900Z,90.36
2023-02-25T16:10:22.569Z,91.11
2023-02-25T16:12:52.797Z,91.06
2023-02-25T16:15:25.608Z,91.43
2023-02-25T16:17:56.142Z,90.82
2023-02-25T16:20:48.529Z,91.10
2023-02-25T16:23:19.481Z,90.09
2023-02-25T16:26:18.676Z,90.14
2023-02-25T16:29:02.790Z,89.39
2023-02-25T16:31:44.064Z,89.14
2023-02-25T16:34:22.486Z,90.30
2023-02-25T16:37:21.696Z,89.52
2023-02-25T16:39:51.921Z,88.75
2023-02-25T16:42:21.290Z,90.04
2023-02-25T16:44:58.828Z,87.88
2023-02-25T16:47:29.369Z,88.22
2023-02-25T16:49:58.235Z,89.03
2023-02-25T16:52:36.134Z,89.77
2023-02-25T16:55:10.340Z,90.33
2023-02-25T16:57:38.648Z,90.83
2023-02-25T17:00:24.220Z,90.14
2023-02-25T17:03:00.515Z,90.35
2023-02-25T17:05:34.020Z,89.39
2023-02-25T17:08:02.587Z,91.43
2023-02-25T17:10:33.485Z,89.23
2023-02-25T17:13:02.840Z,95.95
2023-02-25T17:15:32.495Z,86.82
2023-02-25T17:18:12.371Z,84.44
2023-02-25T17:20:40.008Z,83.94
2023-02-25T17:23:10.322Z,83.50
2023-02-25T17:25:41.415Z,84.41
2023-02-25T17:28:16.025Z,83.94
2023-02-25T17:30:48.400Z,83.53
2023-02-25T17:33:26.587Z,82.20
2023-02-25T17:36:03.149Z,82.00
2023-02-25T17:38:30.111Z,81.52
2023-02-25T17:40:57.059Z,80.17
2023-02-25T17:43:33.006Z,86.86
2023-02-25T17:46:03.086Z,82.92
2023-02-25T17:48:32.502Z,84.59
2023-02-25T17:51:08.412Z,84.34
2023-02-25T17:53:47.075Z,82.16
2023-02-25T17:56:23.342Z,80.70
2023-02-25T17:58:54.157Z,81.16
2023-02-25T18:01:32.022Z,80.29
2023-02-25T18:04:05.209Z,79.87
2023-02-25T18:06:41.102Z,80.09
2023-02-25T18:09:28.669Z,79.85
2023-02-25T18:12:14.696Z,80.65
2023-02-25T18:14:45.880Z,79.84
2023-02-25T18:17:28.529Z,80.07
2023-02-25T18:20:01.114Z,78.78
2023-02-25T18:22:39.161Z,78.88
2023-02-25T18:25:27.880Z,79.72
2023-02-25T18:27:58.342Z,79.47
2023-02-25T18:30:56.138Z,78.43
2023-02-25T18:33:34.627Z,78.50
2023-02-25T18:36:01.818Z,79.00
2023-02-25T18:38:30.935Z,78.10
2023-02-25T18:40:58.269Z,77.07
2023-02-25T18:46:41.993Z,77.36
2023-02-25T18:49:08.833Z,77.11
2023-02-25T18:51:35.920Z,76.93
2023-02-25T18:54:02.757Z,76.58
2023-02-25T18:56:29.673Z,75.72
2023-02-25T18:58:57.629Z,75.17
2023-02-25T19:01:28.700Z,76.22
2023-02-25T19:04:01.552Z,75.17
2023-02-25T19:06:29.247Z,76.01
2023-02-25T19:08:56.813Z,74.88
2023-02-25T19:11:30.878Z,75.67
2023-02-25T19:13:57.838Z,73.90
2023-02-25T19:18:22.860Z,74.67
2023-02-25T19:20:32.565Z,73.59
2023-02-25T19:27:10.071Z,72.86
2023-02-25T19:29:36.578Z,73.29
2023-02-25T19:32:03.175Z,73.62
2023-02-25T19:34:29.782Z,73.09
2023-02-25T19:36:59.887Z,73.24
2023-02-25T19:39:29.283Z,73.49
2023-02-25T19:42:00.356Z,73.26
2023-02-25T19:44:47.920Z,72.83
2023-02-25T19:47:15.873Z,72.57
2023-02-25T19:49:42.651Z,72.76
2023-02-25T19:52:09.158Z,72.98
2023-02-25T19:54:35.627Z,71.33
2023-02-25T19:57:02.068Z,70.41
2023-02-25T19:59:31.299Z,70.74
2023-02-25T20:02:01.585Z,69.50
2023-02-25T20:04:31.489Z,68.55
2023-02-25T20:07:00.830Z,68.54
2023-02-25T20:09:30.636Z,68.83
2023-02-25T20:11:59.773Z,68.54
2023-02-25T20:14:31.282Z,67.78
2023-02-25T20:17:00.809Z,68.36
2023-02-25T20:19:32.892Z,67.21
2023-02-25T20:25:24.220Z,66.95
2023-02-25T20:27:50.752Z,67.42
2023-02-25T20:30:18.026Z,68.34
2023-02-25T20:32:45.313Z,68.73
2023-02-25T20:35:18.364Z,67.93
2023-02-25T20:38:00.217Z,67.48
2023-02-25T20:40:28.154Z,68.45
2023-02-25T20:42:54.859Z,67.28
2023-02-25T20:45:21.641Z,67.39
2023-02-25T20:47:48.293Z,68.81
2023-02-25T20:50:15.874Z,68.19
2023-02-25T20:52:42.468Z,68.06
2023-02-25T20:55:09.528Z,68.04
2023-02-25T20:57:36.055Z,67.91
2023-02-25T21:00:02.623Z,68.21
2023-02-25T21:02:29.666Z,68.30
2023-02-25T21:04:58.589Z,68.74
2023-02-25T21:07:25.072Z,68.12
2023-02-25T21:09:51.544Z,68.27
2023-02-25T21:12:18.052Z,68.73
2023-02-25T21:14:44.484Z,68.36
2023-02-25T21:17:13.536Z,68.04
2023-02-25T21:19:40.536Z,68.84
2023-02-25T21:22:08.002Z,68.42
2023-02-25T21:24:36.178Z,68.49
2023-02-25T21:27:11.569Z,67.31
2023-02-25T21:29:38.626Z,68.37
2023-02-25T21:32:05.434Z,68.74
2023-02-25T21:34:31.996Z,67.42
2023-02-25T21:37:01.328Z,68.88
2023-02-25T21:39:29.950Z,67.77
2023-02-25T21:41:56.621Z,68.81
2023-02-25T21:44:23.157Z,69.06
2023-02-25T21:46:49.679Z,67.57
2023-02-25T21:49:16.203Z,67.80
2023-02-25T21:51:42.796Z,68.04
2023-02-25T21:54:09.669Z,67.90
2023-02-25T21:56:36.263Z,67.79
2023-02-25T21:59:05.719Z,67.92
2023-02-25T22:01:43.921Z,67.34
2023-02-25T22:04:11.408Z,66.92
2023-02-25T22:06:38.468Z,67.35
2023-02-25T22:09:06.795Z,67.33
2023-02-25T22:11:36.074Z,66.55
2023-02-25T22:14:05.700Z,66.34
2023-02-25T22:16:32.581Z,66.29
2023-02-25T22:19:03.307Z,66.33
2023-02-25T22:21:35.463Z,65.40
2023-02-25T22:24:06.147Z,65.74
2023-02-25T22:26:34.875Z,64.79
2023-02-25T22:29:09.216Z,65.42
2023-02-25T22:31:36.551Z,64.64
2023-02-25T22:34:04.098Z,65.15
2023-02-25T22:36:31.485Z,65.33
2023-02-25T22:38:57.972Z,66.24
2023-02-25T22:41:29.528Z,66.44
2023-02-25T22:43:58.467Z,66.08
2023-02-25T22:46:29.205Z,66.31
2023-02-25T22:48:56.199Z,65.90
2023-02-25T22:51:28.818Z,66.48
2023-02-25T22:53:56.395Z,66.30
2023-02-25T22:56:23.570Z,66.19
2023-02-25T22:58:50.678Z,66.03
2023-02-25T23:01:19.402Z,66.04
2023-02-25T23:03:47.045Z,65.97
2023-02-25T23:06:15.671Z,66.50
2023-02-25T23:08:42.675Z,66.16
2023-02-25T23:11:16.418Z,66.31
2023-02-25T23:13:48.177Z,67.08
2023-02-25T23:16:34.252Z,66.74
2023-02-25T23:19:05.783Z,67.14
2023-02-25T23:21:38.653Z,67.68
2023-02-25T23:24:07.505Z,67.29
2023-02-25T23:26:38.696Z,67.30
2023-02-25T23:29:10.237Z,67.30
2023-02-25T23:31:42.356Z,67.95
2023-02-25T23:34:12.286Z,68.37
2023-02-25T23:36:40.887Z,69.09
2023-02-25T23:39:09.014Z,69.39
2023-02-25T23:41:40.036Z,69.20
2023-02-25T23:44:11.614Z,69.75
2023-02-25T23:46:38.210Z,69.96
2023-02-25T23:49:08.880Z,69.97
2023-02-25T23:51:37.606Z,70.06
2023-02-25T23:54:09.489Z,70.29
2023-02-25T23:56:39.216Z,70.90
2023-02-25T23:59:07.903Z,71.14
